Crestview, FL

7:16 PM CDT on September 03, 2015 (GMT -0500)
Sikes | | Change Station
CLOSE
Current Station
Airport
Location: Crestview,
Elevation: 213 ft
Nearby Weather Stations

Elev 213 ft 30.78 °N, 86.52 °W | Updated 23 minutes ago

Clear
Clear
74 °F
Feels Like 74 °F
N
5
Wind Variable Wind from ESE

Today
High -- | Low -- °F
--% Chance of Precip.
Yesterday
High -- | Low -- °F
Precip. -- in
6:23 AM 7:07 PM
Waning Gibbous, 65% visible
Pressure 29.93 in
Visibility 4.0 miles
Clouds Clear
Dew Point 73 °F
Humidity 97%
Rainfall 0.37 in
Snow Depth Not available.
UV 0 out of 12
Pollen 7.40 out of 12
Air Quality Not available.
Flu Activity Not available.
METAR KCEW 032353Z AUTO 12004KT 4SM BR CLR 23/23 A2994 RMK AO2 RAE17 SLP134 6//// T02330228 10339 20228 58005 PNO $
Pressure 29.93 in
Visibility 4.0 miles
Clouds Clear
Dew Point 73 °F
Humidity 97%
Rainfall 0.37 in
Snow Depth Not available.
UV 0 out of 12
Pollen 7.40 out of 12
Air Quality Not available.
Flu Activity Not available.
METAR KCEW 032353Z AUTO 12004KT 4SM BR CLR 23/23 A2994 RMK AO2 RAE17 SLP134 6//// T02330228 10339 20228 58005 PNO $

10-Day Weather Forecast

×

Almanac

Astronomy

Sep. 03, 2015 Rise Set
Actual Time
Civil Twilight
Nautical Twilight
Astronomical Twilight
Moon
Length of Visible Light
Length of Day
Tomorrow will be .
, % of the Moon is Illuminated

Today's Extremes

State Highs State Lows

Community

WunderPhotos

Upload Photos

1,852,068 photos uploaded!

WunderBlogs® & News

Nearby

Air Quality

  Air Quality AQ Index Pollutant
Not available.

Snow Depth

Station Depth Elevation

Earthquake Activity

City Distance Mag. Time & Date
Minimum magnitude displayed is 2.5.

Coastal Water Temperatures

Place Temperature

Stations

Nearby Weather Stations

Station Location Temp. Windchill Dew Point Humidity Wind Precip. Elev Updated Type